Time;durP1;ratioP1;P1;durP2;ratioP2;P2;SDS_P1;SDS_P2;PMS_P1;PMS_P2;Temp;Humidity;BMP_temperature;BMP_pressure;BME280_temperature;BME280_humidity;BME280_pressure;Samples;Min_cycle;Max_cycle;Signal;HPM_P1;HPM_P2
2023/02/08 00:01:32;;;;;;;28.80;10.43;;;;;;;-3.08;68.51;102669.72;125863;1099;101813;-86
2023/02/08 00:04:05;;;;;;;30.63;11.67;;;;;;;-3.09;67.69;102685.84;125813;1099;101767;-86
2023/02/08 00:06:37;;;;;;;30.10;11.50;;;;;;;-3.16;66.98;102680.69;125867;1099;103948;-86
2023/02/08 00:09:09;;;;;;;29.23;11.00;;;;;;;-3.21;67.28;102683.40;126009;1099;101885;-89
2023/02/08 00:11:41;;;;;;;29.67;11.47;;;;;;;-3.25;67.66;102687.23;125773;1099;101846;-88
2023/02/08 00:14:13;;;;;;;30.17;11.77;;;;;;;-3.29;67.47;102691.08;125878;1099;103951;-88
2023/02/08 00:16:46;;;;;;;30.47;11.70;;;;;;;-3.33;67.39;102687.94;125843;1098;104013;-87
2023/02/08 00:19:18;;;;;;;30.20;10.90;;;;;;;-3.33;67.33;102690.50;125809;1099;101573;-85
2023/02/08 00:21:50;;;;;;;28.50;10.93;;;;;;;-3.35;67.89;102690.30;125912;1099;101504;-88
2023/02/08 00:24:23;;;;;;;30.60;11.70;;;;;;;-3.35;68.52;102699.63;125741;1099;101526;-87
2023/02/08 00:26:55;;;;;;;31.17;12.37;;;;;;;-3.35;67.94;102692.88;126000;1099;103967;-87
2023/02/08 00:29:27;;;;;;;26.83;9.93;;;;;;;-3.34;68.23;102701.48;125891;1099;103969;-90
2023/02/08 00:31:59;;;;;;;28.90;11.03;;;;;;;-3.36;67.71;102693.59;125708;1099;104013;-88
2023/02/08 00:34:34;;;;;;;30.03;11.53;;;;;;;-3.39;68.50;102700.91;125873;1099;104054;-89
2023/02/08 00:37:04;;;;;;;;;;;;;;;-3.42;67.44;102707.30;126032;1099;102115;-90
2023/02/08 00:39:36;;;;;;;32.77;11.93;;;;;;;-3.50;67.49;102702.11;125916;1099;103951;-89
2023/02/08 00:42:09;;;;;;;30.13;10.73;;;;;;;-3.51;68.16;102707.95;125998;1099;103958;-90
2023/02/08 00:44:41;;;;;;;30.50;11.23;;;;;;;-3.54;68.24;102711.78;125896;1098;101798;-90
2023/02/08 00:47:13;;;;;;;33.97;12.20;;;;;;;-3.55;68.77;102715.06;125865;1098;103955;-86
2023/02/08 00:49:46;;;;;;;29.20;11.23;;;;;;;-3.57;68.78;102721.66;125851;1099;104095;-89
2023/02/08 00:52:20;;;;;;;32.30;12.10;;;;;;;-3.59;69.03;102718.90;125857;1099;101578;-89
2023/02/08 00:54:52;;;;;;;34.70;13.07;;;;;;;-3.58;68.98;102719.81;125906;1098;101876;-88
2023/02/08 00:57:24;;;;;;;30.63;11.13;;;;;;;-3.57;68.18;102722.57;125809;1099;101939;-87
2023/02/08 00:59:57;;;;;;;32.17;11.77;;;;;;;-3.52;69.33;102725.73;125735;1098;103968;-89
2023/02/08 01:02:29;;;;;;;34.90;13.97;;;;;;;-3.49;68.37;102727.06;125782;1099;103993;-84
2023/02/08 01:05:02;;;;;;;33.10;13.03;;;;;;;-3.46;69.07;102727.45;125777;1099;101810;-86
2023/02/08 01:07:35;;;;;;;33.87;12.53;;;;;;;-3.47;69.07;102742.66;125942;1099;101644;-87
2023/02/08 01:10:11;;;;;;;33.13;11.50;;;;;;;-3.55;69.18;102751.95;125907;1099;101609;-90
2023/02/08 01:12:43;;;;;;;32.03;12.50;;;;;;;-3.56;68.99;102754.31;125878;1099;101975;-90
2023/02/08 01:15:16;;;;;;;34.23;12.87;;;;;;;-3.62;68.53;102757.91;125890;1098;104019;-87
2023/02/08 01:17:53;;;;;;;34.87;12.20;;;;;;;-3.65;69.38;102761.73;125965;1099;101636;-87
2023/02/08 01:20:26;;;;;;;32.40;11.53;;;;;;;-3.73;68.88;102764.97;126024;1099;103977;-87
2023/02/08 01:22:58;;;;;;;30.53;10.33;;;;;;;-3.78;69.03;102761.81;126014;1098;103977;-88
2023/02/08 01:25:30;;;;;;;30.53;11.80;;;;;;;-3.80;69.36;102763.27;125966;1099;101780;-86
2023/02/08 01:28:04;;;;;;;29.27;11.85;;;;;;;-3.79;68.46;102767.66;126049;1099;101893;-89
2023/02/08 01:30:36;;;;;;;29.93;12.00;;;;;;;-3.84;69.13;102764.50;126020;1099;101535;-89
2023/02/08 01:33:09;;;;;;;29.80;11.50;;;;;;;-3.84;69.33;102767.06;126058;1099;101664;-84
2023/02/08 01:35:41;;;;;;;31.03;11.97;;;;;;;-3.83;68.71;102780.83;125493;1099;102010;-89
2023/02/08 01:38:13;;;;;;;29.57;11.00;;;;;;;-3.86;68.95;102770.17;125952;1099;104051;-88
2023/02/08 01:40:45;;;;;;;29.97;11.10;;;;;;;-3.88;69.37;102781.86;126012;1099;102821;-89
2023/02/08 01:43:25;;;;;;;28.93;10.27;;;;;;;-3.96;68.86;102780.86;125955;1098;101811;-91
2023/02/08 01:45:57;;;;;;;31.83;13.27;;;;;;;-3.92;70.19;102772.86;125842;1099;101739;-87
2023/02/08 01:48:34;;;;;;;31.57;11.87;;;;;;;-3.85;70.04;102789.95;125723;1099;104046;-87
2023/02/08 01:51:14;;;;;;;32.60;13.00;;;;;;;-3.84;69.80;102789.24;126057;1099;102318;-86
2023/02/08 01:53:47;;;;;;;36.70;14.47;;;;;;;-3.86;69.75;102789.05;126074;1098;101567;-87
2023/02/08 01:56:27;;;;;;;34.17;11.33;;;;;;;-3.89;69.09;102801.47;125946;1098;104057;-88
2023/02/08 01:59:03;;;;;;;31.60;11.27;;;;;;;-3.85;69.32;102805.34;125730;1099;101930;-88
2023/02/08 02:01:36;;;;;;;32.17;12.53;;;;;;;-3.87;69.94;102801.67;125769;1099;101618;-90
2023/02/08 02:04:09;;;;;;;25.03;9.90;;;;;;;-3.89;69.99;102803.13;125865;1099;101612;-84
2023/02/08 02:06:44;;;;;;;31.17;11.90;;;;;;;-3.92;70.59;102812.98;125871;1099;101554;-89
2023/02/08 02:09:20;;;;;;;33.23;13.07;;;;;;;-3.95;70.10;102810.93;125495;1098;104121;-91
2023/02/08 02:11:54;;;;;;;32.40;13.10;;;;;;;-3.97;70.32;102813.30;125804;1099;104051;-88
2023/02/08 02:14:26;;;;;;;33.75;12.78;;;;;;;-3.99;70.34;102808.67;125845;1099;104418;-89
2023/02/08 02:17:01;;;;;;;33.57;13.70;;;;;;;-4.00;70.38;102815.46;125783;1099;101882;-89
2023/02/08 02:19:45;;;;;;;32.13;12.33;;;;;;;-3.99;70.43;102826.63;125686;1099;104078;-87
2023/02/08 02:22:40;;;;;;;32.90;12.58;;;;;;;-4.00;70.48;102830.84;125817;1099;103999;-88
2023/02/08 02:25:29;;;;;;;;;;;;;;;-4.05;72.58;102831.89;125926;1099;101991;-87
2023/02/08 02:28:34;;;;;;;34.87;13.33;;;;;;;-4.08;71.11;102833.11;125866;1099;101943;-87
2023/02/08 02:31:27;;;;;;;32.20;12.57;;;;;;;-4.11;70.52;102840.41;125716;1099;101609;-87
2023/02/08 02:34:06;;;;;;;31.77;12.87;;;;;;;-4.12;70.87;102839.49;125677;1099;103993;-89
2023/02/08 02:36:46;;;;;;;36.40;15.70;;;;;;;-4.16;71.00;102847.48;125822;1099;104433;-83
2023/02/08 02:39:25;;;;;;;33.97;15.07;;;;;;;-4.17;71.13;102850.80;126127;1099;103938;-88
2023/02/08 02:44:54;;;;;;;;;;;;;;;-4.25;72.49;102861.69;126009;1099;101743;-88
2023/02/08 02:47:32;;;;;;;36.08;12.63;;;;;;;-4.25;70.92;102864.25;126021;1099;103948;-88
2023/02/08 02:50:12;;;;;;;33.57;13.53;;;;;;;-4.27;71.29;102870.80;125779;1099;103951;-91
2023/02/08 02:52:49;;;;;;;38.10;13.53;;;;;;;-4.27;71.07;102868.23;125829;1099;101703;-90
2023/02/08 02:55:25;;;;;;;31.97;12.73;;;;;;;-4.28;71.47;102868.97;126122;1099;101840;-90
2023/02/08 02:58:01;;;;;;;33.70;13.37;;;;;;;-4.33;71.74;102870.92;125903;1099;103986;-89
2023/02/08 03:00:34;;;;;;;35.37;13.73;;;;;;;-4.35;71.91;102878.41;125277;1099;101836;-85
2023/02/08 03:03:20;;;;;;;35.15;14.00;;;;;;;-4.36;72.30;102871.43;125842;1099;101911;-87
2023/02/08 03:05:56;;;;;;;34.87;12.80;;;;;;;-4.43;72.29;102875.53;125959;1099;101875;-91
2023/02/08 03:08:54;;;;;;;36.80;13.60;;;;;;;-4.46;71.79;102881.16;125737;1099;103980;-90
2023/02/08 03:11:29;;;;;;;35.47;13.20;;;;;;;-4.49;72.08;102879.84;125904;1098;103977;-90
2023/02/08 03:14:23;;;;;;;34.77;12.17;;;;;;;-4.55;71.81;102874.80;125899;1098;102083;-84
2023/02/08 03:17:16;;;;;;;32.37;13.23;;;;;;;-4.58;71.94;102879.52;125872;1099;101571;-90
2023/02/08 03:19:58;;;;;;;32.33;12.33;;;;;;;-4.62;72.57;102879.84;125762;1098;104133;-89
2023/02/08 03:22:38;;;;;;;33.97;12.10;;;;;;;-4.65;73.13;102879.43;125903;1099;102514;-89
2023/02/08 03:25:17;;;;;;;39.37;14.53;;;;;;;-4.67;72.40;102873.16;125886;1099;104069;-87
2023/02/08 03:28:01;;;;;;;37.10;13.50;;;;;;;-4.70;72.69;102883.94;125812;1098;102076;-89
2023/02/08 03:30:44;;;;;;;38.85;13.72;;;;;;;-4.72;73.14;102891.41;125778;1099;101778;-88
2023/02/08 03:33:25;;;;;;;35.70;14.10;;;;;;;-4.74;72.73;102887.70;125874;1099;104027;-87
2023/02/08 03:36:03;;;;;;;36.23;15.07;;;;;;;-4.71;72.81;102900.92;125822;1099;101805;-89
2023/02/08 03:38:40;;;;;;;37.93;14.10;;;;;;;-4.70;72.35;102902.78;125871;1099;102236;-88
2023/02/08 03:41:18;;;;;;;36.40;14.90;;;;;;;-4.70;72.42;102902.78;125987;1099;101583;-84
2023/02/08 03:43:57;;;;;;;36.80;14.90;;;;;;;-4.72;72.42;102901.66;125699;1099;103960;-90
2023/02/08 03:46:32;;;;;;;34.27;14.33;;;;;;;-4.73;72.56;102901.45;125912;1099;103629;-87
2023/02/08 03:49:08;;;;;;;37.90;17.53;;;;;;;-4.73;72.31;102910.05;125748;1099;104009;-88
2023/02/08 03:51:43;;;;;;;38.27;15.53;;;;;;;-4.72;72.54;102904.22;125694;1098;102371;-80
2023/02/08 03:54:20;;;;;;;37.73;14.87;;;;;;;-4.70;72.35;102913.03;125930;1097;111622;-85
2023/02/08 03:56:58;;;;;;;40.53;14.27;;;;;;;-4.67;72.39;102914.14;125728;1099;101583;-90
2023/02/08 03:59:35;;;;;;;40.40;16.07;;;;;;;-4.72;72.63;102922.16;125898;1099;101686;-89
2023/02/08 04:02:11;;;;;;;37.53;14.10;;;;;;;-4.73;72.62;102925.42;125832;1099;101901;-87
2023/02/08 04:04:47;;;;;;;37.50;14.07;;;;;;;-4.74;71.78;102923.56;125713;1099;104041;-88
2023/02/08 04:07:19;;;;;;;34.20;12.60;;;;;;;-4.76;72.47;102935.25;125783;1099;102245;-86
2023/02/08 04:09:52;;;;;;;34.73;13.17;;;;;;;-4.78;72.43;102934.13;125736;1099;103020;-88
2023/02/08 04:12:24;;;;;;;34.77;14.00;;;;;;;-4.82;72.07;102931.86;125698;1099;104012;-83
2023/02/08 04:14:56;;;;;;;35.57;14.33;;;;;;;-4.83;72.46;102929.09;125675;1099;107083;-90
2023/02/08 04:17:29;;;;;;;35.73;14.10;;;;;;;-4.87;72.19;102941.48;125754;1099;101616;-90
2023/02/08 04:20:01;;;;;;;30.73;11.33;;;;;;;-4.89;72.32;102950.60;125812;1099;103954;-84
2023/02/08 04:22:34;;;;;;;34.90;13.30;;;;;;;-4.92;72.17;102965.55;125260;1099;101629;-85
2023/02/08 04:25:06;;;;;;;36.63;13.70;;;;;;;-4.94;72.24;102972.11;125867;1099;102128;-87
2023/02/08 04:27:38;;;;;;;39.83;15.20;;;;;;;-4.94;72.28;102968.60;125941;1099;101940;-87
2023/02/08 04:30:14;;;;;;;34.15;13.35;;;;;;;-4.94;72.29;102971.16;126001;1098;101611;-89
2023/02/08 04:32:46;;;;;;;32.77;13.10;;;;;;;-4.96;72.09;102978.63;125980;1099;103935;-88
2023/02/08 04:35:18;;;;;;;36.10;14.03;;;;;;;-4.98;72.03;102980.07;125754;1098;104054;-88
2023/02/08 04:37:50;;;;;;;34.20;13.47;;;;;;;-4.98;72.26;102986.84;125731;1099;101721;-89
2023/02/08 04:40:22;;;;;;;40.93;13.70;;;;;;;-4.99;72.10;102993.58;125827;1099;103951;-89
2023/02/08 04:42:55;;;;;;;35.23;12.60;;;;;;;-5.04;72.22;102996.24;125868;1098;104127;-87
2023/02/08 04:45:28;;;;;;;38.50;13.90;;;;;;;-5.06;72.08;103001.15;125717;1099;111518;-88
2023/02/08 04:48:02;;;;;;;39.70;15.32;;;;;;;-5.10;72.02;102993.75;125882;1099;101967;-85
2023/02/08 04:50:35;;;;;;;37.53;14.07;;;;;;;-5.15;72.21;103002.44;125930;1099;102146;-83
2023/02/08 04:53:07;;;;;;;44.53;16.47;;;;;;;-5.18;71.91;103008.05;125604;1099;104168;-83
2023/02/08 04:55:39;;;;;;;39.40;15.40;;;;;;;-5.21;72.51;103012.73;125714;1099;101596;-86
2023/02/08 04:58:12;;;;;;;44.67;16.53;;;;;;;-5.24;71.96;103009.75;125251;1099;101828;-87
2023/02/08 05:00:44;;;;;;;43.37;16.83;;;;;;;-5.26;72.19;103023.98;125844;1099;103949;-84
2023/02/08 05:03:16;;;;;;;41.83;14.93;;;;;;;-5.30;72.07;103021.70;125623;1099;102142;-84
2023/02/08 05:05:56;;;;;;;44.97;17.97;;;;;;;-5.33;71.74;103022.22;125631;1099;102856;-86
2023/02/08 05:08:28;;;;;;;43.97;16.40;;;;;;;-5.35;72.40;103015.94;125640;1099;103939;-88
2023/02/08 05:11:00;;;;;;;37.67;15.60;;;;;;;-5.37;72.19;103019.93;125583;1099;103955;-83
2023/02/08 05:13:33;;;;;;;38.20;14.77;;;;;;;-5.35;72.11;103027.83;125702;1099;101699;-85
2023/02/08 05:16:05;;;;;;;33.90;14.40;;;;;;;-5.36;72.08;103036.20;125670;1098;118807;-86
2023/02/08 05:18:37;;;;;;;38.10;14.33;;;;;;;-5.37;72.21;103040.41;125626;1099;101593;-89
2023/02/08 05:21:10;;;;;;;38.83;14.53;;;;;;;-5.37;72.32;103052.29;125606;1099;101846;-86
2023/02/08 05:23:42;;;;;;;34.57;13.70;;;;;;;-5.39;72.18;103056.24;125657;1097;104066;-84
2023/02/08 05:26:15;;;;;;;34.93;13.23;;;;;;;-5.41;72.61;103066.27;125596;1099;103964;-83
2023/02/08 05:28:47;;;;;;;35.90;13.90;;;;;;;-5.43;72.07;103071.17;125704;1099;101786;-82
2023/02/08 05:31:23;;;;;;;36.90;13.03;;;;;;;-5.45;72.20;103079.36;125661;1099;104037;-85
2023/02/08 05:33:55;;;;;;;34.80;12.93;;;;;;;-5.49;72.46;103077.07;125625;1099;101836;-81
2023/02/08 05:36:28;;;;;;;37.00;14.00;;;;;;;-5.51;72.46;103096.41;125618;1099;104163;-81
2023/02/08 05:39:00;;;;;;;37.90;13.97;;;;;;;-5.52;72.04;103097.11;125527;1099;104003;-83
2023/02/08 05:41:33;;;;;;;38.63;15.87;;;;;;;-5.54;72.03;103094.33;125563;1099;102187;-79
2023/02/08 05:44:05;;;;;;;43.03;16.87;;;;;;;-5.53;72.09;103093.63;125491;1099;103940;-82
2023/02/08 05:46:37;;;;;;;44.40;16.80;;;;;;;-5.55;71.75;103087.34;125572;1098;102198;-81
2023/02/08 05:49:10;;;;;;;39.20;15.47;;;;;;;-5.52;72.15;103097.11;125530;1099;101504;-82
2023/02/08 05:51:42;;;;;;;40.53;14.90;;;;;;;-5.51;72.35;103097.33;125657;1099;101994;-80
2023/02/08 05:54:17;;;;;;;37.50;14.07;;;;;;;-5.53;72.46;103103.87;125586;1099;103955;-80
2023/02/08 05:56:49;;;;;;;40.20;14.20;;;;;;;-5.53;72.21;103103.87;125530;1099;104069;-79
2023/02/08 05:59:21;;;;;;;38.30;13.20;;;;;;;-5.49;72.16;103107.77;125520;1099;104005;-82
2023/02/08 06:01:53;;;;;;;36.10;15.00;;;;;;;-5.44;72.29;103107.73;125398;1099;103932;-80
2023/02/08 06:04:26;;;;;;;37.90;13.37;;;;;;;-5.38;73.03;103116.97;125472;1099;103967;-81
2023/02/08 06:06:58;;;;;;;39.13;14.53;;;;;;;-5.35;72.43;103119.96;125615;1099;101912;-76
2023/02/08 06:09:30;;;;;;;34.50;13.50;;;;;;;-5.33;72.61;103113.41;125297;1099;104028;-76
2023/02/08 06:12:03;;;;;;;35.17;13.93;;;;;;;-5.28;72.34;103118.48;125536;1099;102774;-76
2023/02/08 06:14:35;;;;;;;42.73;15.77;;;;;;;-5.22;72.30;103126.08;125402;1099;103990;-76
2023/02/08 06:17:07;;;;;;;37.33;14.43;;;;;;;-5.18;72.13;103132.58;125490;1098;102793;-76
2023/02/08 06:19:41;;;;;;;41.70;15.83;;;;;;;-5.18;72.54;103133.48;125548;1099;101832;-76
2023/02/08 06:22:13;;;;;;;40.17;15.60;;;;;;;-5.25;72.46;103107.73;125436;1098;103942;-78
2023/02/08 06:24:47;;;;;;;40.07;14.80;;;;;;;-5.15;72.35;103133.92;125489;1099;104030;-78
2023/02/08 06:27:22;;;;;;;36.50;14.53;;;;;;;-5.15;72.29;103125.33;125564;1099;103961;-74
2023/02/08 06:29:56;;;;;;;39.67;16.43;;;;;;;-5.15;72.21;103123.68;125758;1099;103976;-77
2023/02/08 06:32:28;;;;;;;41.25;16.77;;;;;;;-5.15;72.13;103133.01;125580;1099;104009;-76
2023/02/08 06:35:00;;;;;;;42.93;16.23;;;;;;;-5.17;72.06;103127.67;125790;1098;104034;-77
2023/02/08 06:37:33;;;;;;;42.03;16.97;;;;;;;-5.17;72.26;103136.97;125685;1099;102797;-74
2023/02/08 06:40:06;;;;;;;40.57;16.10;;;;;;;-5.20;72.06;103142.60;125830;1099;102152;-78
2023/02/08 06:42:41;;;;;;;42.05;17.30;;;;;;;-5.19;72.28;103144.43;125630;1099;102171;-76
2023/02/08 06:45:14;;;;;;;45.70;19.73;;;;;;;-5.17;72.17;103145.59;125635;1099;102021;-78
2023/02/08 06:47:46;;;;;;;40.40;16.20;;;;;;;-5.12;72.04;103151.36;125744;1099;103970;-78
2023/02/08 06:50:19;;;;;;;39.43;17.13;;;;;;;-5.10;72.34;103150.84;125663;1099;103974;-79
2023/02/08 06:52:51;;;;;;;41.70;17.23;;;;;;;-5.03;72.09;103157.78;125468;1099;103983;-78
2023/02/08 06:55:23;;;;;;;42.00;17.07;;;;;;;-5.04;72.02;103163.59;126105;1098;102113;-83
2023/02/08 06:57:57;;;;;;;35.10;14.47;;;;;;;-5.01;71.94;103164.03;125871;1099;102324;-76
2023/02/08 07:00:31;;;;;;;34.80;14.30;;;;;;;-5.00;71.95;103180.30;125426;1099;101896;-75
2023/02/08 07:03:05;;;;;;;38.90;15.23;;;;;;;-5.02;71.84;103171.49;125690;1099;104095;-78
2023/02/08 07:05:38;;;;;;;38.93;15.63;;;;;;;-5.03;71.77;103175.70;125811;1099;102438;-76
2023/02/08 07:08:11;;;;;;;39.50;14.87;;;;;;;-5.01;71.64;103173.36;125812;1099;103951;-79
2023/02/08 07:10:45;;;;;;;34.20;15.33;;;;;;;-4.99;71.42;103177.05;125739;1099;102859;-76
2023/02/08 07:13:23;;;;;;;36.57;14.73;;;;;;;-4.96;71.42;103183.52;125574;1099;103207;-77
2023/02/08 07:15:55;;;;;;;34.50;13.73;;;;;;;-4.91;71.55;103181.60;125718;1099;102374;-77
2023/02/08 07:18:28;;;;;;;39.93;14.60;;;;;;;-4.92;71.41;103190.94;125584;1099;104341;-75
2023/02/08 07:21:00;;;;;;;37.40;13.93;;;;;;;-4.97;71.45;103181.69;125782;1099;102702;-77
2023/02/08 07:23:32;;;;;;;38.30;14.70;;;;;;;-4.96;71.51;103185.16;125747;1099;102279;-75
2023/02/08 07:26:09;;;;;;;37.93;15.25;;;;;;;-4.95;71.44;103187.94;125795;1099;101948;-76
2023/02/08 07:28:42;;;;;;;39.17;15.87;;;;;;;-4.86;71.59;103188.31;125660;1099;102963;-77
2023/02/08 07:31:17;;;;;;;44.37;15.83;;;;;;;-4.81;71.54;103182.19;125624;1099;102336;-75
2023/02/08 07:33:50;;;;;;;40.57;15.57;;;;;;;-4.74;71.50;103184.88;125534;1098;103968;-78
2023/02/08 07:36:22;;;;;;;35.87;14.90;;;;;;;-4.62;71.46;103187.33;125522;1099;102738;-76
2023/02/08 07:38:56;;;;;;;39.83;14.87;;;;;;;-4.59;71.23;103196.36;125633;1099;107687;-76
2023/02/08 07:41:29;;;;;;;37.53;14.23;;;;;;;-4.54;71.27;103195.34;125663;1099;101981;-77
2023/02/08 07:44:05;;;;;;;35.50;14.20;;;;;;;-4.47;71.21;103199.71;125677;1099;103327;-78
2023/02/08 07:46:37;;;;;;;35.33;14.23;;;;;;;-4.38;71.70;103200.98;125766;1099;102536;-78
2023/02/08 07:49:10;;;;;;;36.60;15.40;;;;;;;-4.29;71.31;103198.75;125567;1099;118925;-77
2023/02/08 07:51:43;;;;;;;33.40;13.90;;;;;;;-4.22;70.56;103205.67;125615;1099;103530;-78
2023/02/08 07:54:20;;;;;;;34.83;14.27;;;;;;;-4.23;70.98;103196.13;125663;1099;103962;-77
2023/02/08 07:56:54;;;;;;;35.00;14.77;;;;;;;-4.17;70.84;103195.31;125578;1099;104070;-76
2023/02/08 07:59:27;;;;;;;38.30;15.47;;;;;;;-4.05;70.69;103203.78;125653;1099;102625;-78
2023/02/08 08:02:00;;;;;;;37.50;13.40;;;;;;;-3.94;70.86;103200.13;125563;1099;103025;-81
2023/02/08 08:04:35;;;;;;;34.37;13.53;;;;;;;-3.86;70.42;103204.66;125640;1099;103944;-78
2023/02/08 08:07:08;;;;;;;36.50;14.70;;;;;;;-3.77;71.07;103206.62;125599;1099;104043;-77
2023/02/08 08:09:41;;;;;;;39.37;15.10;;;;;;;-3.67;70.97;103199.47;125448;1099;112722;-76
2023/02/08 08:12:15;;;;;;;36.60;14.67;;;;;;;-3.56;71.06;103206.05;125494;1099;102522;-76
2023/02/08 08:14:47;;;;;;;39.53;14.50;;;;;;;-3.44;70.92;103211.20;125710;1099;103938;-78
2023/02/08 08:17:23;;;;;;;34.23;13.67;;;;;;;-3.39;70.31;103204.12;125594;1099;102586;-75
2023/02/08 08:19:55;;;;;;;36.10;14.23;;;;;;;-3.34;70.01;103204.73;125643;1098;103070;-76
2023/02/08 08:22:28;;;;;;;41.37;15.87;;;;;;;-3.26;70.12;103204.11;125620;1099;103931;-81
2023/02/08 08:25:00;;;;;;;34.60;14.20;;;;;;;-3.19;70.12;103205.88;125662;1099;104123;-78
2023/02/08 08:27:33;;;;;;;32.40;12.57;;;;;;;-3.07;69.08;103202.36;125690;1099;102298;-76
2023/02/08 08:30:11;;;;;;;33.30;14.30;;;;;;;-2.97;69.40;103199.39;125545;1099;108302;-75
2023/02/08 08:32:44;;;;;;;38.23;15.33;;;;;;;-2.91;69.99;103192.50;125600;1099;103056;-79
2023/02/08 08:35:16;;;;;;;37.07;14.50;;;;;;;-2.83;68.81;103201.23;125667;1099;102381;-75
2023/02/08 08:37:48;;;;;;;36.27;13.40;;;;;;;-2.76;69.02;103193.58;125784;1099;102257;-75
2023/02/08 08:40:22;;;;;;;29.70;11.67;;;;;;;-2.72;68.21;103206.13;125741;1099;118208;-76
2023/02/08 08:42:54;;;;;;;32.03;12.63;;;;;;;-2.68;68.31;103210.02;125645;1098;104041;-76
2023/02/08 08:45:27;;;;;;;29.40;11.40;;;;;;;-2.61;67.80;103205.89;125738;1099;102350;-77
2023/02/08 08:48:00;;;;;;;30.83;12.17;;;;;;;-2.54;67.11;103202.47;125670;1099;102762;-78
2023/02/08 08:50:33;;;;;;;32.23;11.80;;;;;;;-2.40;67.81;103207.80;126009;1099;102998;-77
2023/02/08 08:53:05;;;;;;;30.47;12.03;;;;;;;-2.29;69.50;103211.78;125905;1099;102885;-78
2023/02/08 08:55:38;;;;;;;31.90;13.37;;;;;;;-2.13;68.57;103212.11;125844;1099;102833;-75
2023/02/08 08:58:10;;;;;;;32.83;12.87;;;;;;;-2.07;68.24;103219.69;125175;1102;103931;-76
2023/02/08 09:00:43;;;;;;;34.27;13.97;;;;;;;-2.06;66.56;103219.88;125643;1099;102977;-77
2023/02/08 09:03:16;;;;;;;32.80;12.57;;;;;;;-2.01;66.92;103216.28;125848;1099;101838;-77
2023/02/08 09:05:49;;;;;;;31.53;12.53;;;;;;;-1.94;66.83;103225.70;125814;1099;103900;-77
2023/02/08 09:08:22;;;;;;;29.03;11.17;;;;;;;-1.95;66.03;103236.72;125631;1099;103119;-77
2023/02/08 09:10:55;;;;;;;27.83;11.83;;;;;;;-1.84;66.90;103228.77;125795;1099;102599;-76
2023/02/08 09:13:29;;;;;;;30.37;12.23;;;;;;;-1.77;65.22;103229.55;124924;1099;102643;-76
2023/02/08 09:16:07;;;;;;;32.77;13.00;;;;;;;-1.69;66.93;103218.58;125695;1099;103967;-77
2023/02/08 09:18:40;;;;;;;31.17;11.63;;;;;;;-1.51;66.13;103219.98;125734;1099;101903;-79
2023/02/08 09:21:14;;;;;;;30.33;11.47;;;;;;;-1.35;67.33;103220.31;125490;1099;108018;-76
2023/02/08 09:23:48;;;;;;;31.90;11.73;;;;;;;-1.21;66.84;103220.41;125515;1099;102185;-75
2023/02/08 09:26:31;;;;;;;27.33;10.20;;;;;;;-1.12;66.14;103224.14;125473;1099;104018;-78
2023/02/08 09:29:04;;;;;;;29.03;11.90;;;;;;;-1.01;66.00;103221.97;125646;1099;103115;-77
2023/02/08 09:31:40;;;;;;;27.95;10.78;;;;;;;-0.95;64.62;103217.59;125683;1099;118345;-76
2023/02/08 09:34:13;;;;;;;27.80;10.57;;;;;;;-0.84;64.22;103219.87;125833;1098;103954;-76
2023/02/08 09:36:45;;;;;;;28.33;10.20;;;;;;;-0.74;65.06;103219.36;125909;1099;103961;-75
2023/02/08 09:39:20;;;;;;;27.27;11.10;;;;;;;-0.70;64.41;103218.08;125723;1099;103127;-75
2023/02/08 09:42:17;;;;;;;27.73;11.73;;;;;;;-0.66;65.52;103216.07;125722;1099;101760;-75
2023/02/08 09:45:10;;;;;;;25.53;11.33;;;;;;;-0.66;64.60;103213.49;125270;1099;102031;-76
2023/02/08 09:47:50;;;;;;;23.90;9.77;;;;;;;-0.64;64.21;103203.37;125856;1099;103017;-78
2023/02/08 09:50:31;;;;;;;27.37;9.70;;;;;;;-0.71;62.73;103211.09;125677;1099;103399;-77
2023/02/08 09:53:15;;;;;;;28.67;10.10;;;;;;;-0.73;63.87;103206.66;125567;1099;102785;-76
2023/02/08 09:55:52;;;;;;;31.27;11.23;;;;;;;-0.69;60.59;103220.84;125586;1100;102757;-75
2023/02/08 09:58:33;;;;;;;19.90;7.90;;;;;;;-0.64;60.91;103195.63;125887;1098;103321;-76
2023/02/08 10:01:12;;;;;;;29.37;10.80;;;;;;;-0.53;61.70;103200.48;125789;1098;104044;-77
2023/02/08 10:03:47;;;;;;;23.80;8.47;;;;;;;-0.43;61.17;103194.80;125760;1099;103957;-76
2023/02/08 10:06:22;;;;;;;26.53;9.27;;;;;;;-0.33;60.63;103202.00;125658;1099;102081;-75
2023/02/08 10:08:54;;;;;;;28.00;10.63;;;;;;;-0.31;61.00;103187.61;125712;1099;102359;-76
2023/02/08 10:11:43;;;;;;;24.77;8.90;;;;;;;-0.34;61.11;103205.30;125668;1099;102774;-76
2023/02/08 10:14:47;;;;;;;25.00;8.77;;;;;;;-0.26;61.65;103186.55;125577;1098;101902;-76
2023/02/08 10:17:47;;;;;;;26.33;8.63;;;;;;;-0.11;60.39;103188.41;125045;1099;102845;-78
2023/02/08 10:20:33;;;;;;;20.77;7.53;;;;;;;-0.08;59.59;103177.52;125897;1099;102083;-75
2023/02/08 10:23:31;;;;;;;19.23;8.00;;;;;;;0.01;61.33;103181.22;126239;1098;102022;-77
2023/02/08 10:26:25;;;;;;;26.53;8.20;;;;;;;-0.02;58.01;103196.33;126768;1099;102047;-78
2023/02/08 10:29:21;;;;;;;25.93;8.10;;;;;;;0.06;60.36;103187.84;126647;1099;102632;-77
2023/02/08 10:32:16;;;;;;;22.73;8.07;;;;;;;-0.08;57.25;103193.95;126841;1098;102094;-76
2023/02/08 10:34:53;;;;;;;22.75;8.20;;;;;;;-0.02;59.56;103178.26;126683;1098;103039;-75
2023/02/08 10:37:46;;;;;;;25.90;9.37;;;;;;;-0.03;60.87;103187.67;126342;1099;102493;-75
2023/02/08 10:40:30;;;;;;;24.03;8.90;;;;;;;0.04;60.89;103181.59;126633;1098;102944;-76
2023/02/08 10:43:21;;;;;;;25.43;8.90;;;;;;;0.11;60.39;103191.93;126652;1099;108069;-77
2023/02/08 10:46:13;;;;;;;24.60;9.50;;;;;;;0.28;61.11;103180.11;126599;1098;102436;-75
2023/02/08 10:49:14;;;;;;;23.07;8.97;;;;;;;0.38;59.73;103187.31;126597;1098;102573;-75
2023/02/08 10:51:51;;;;;;;25.32;9.18;;;;;;;0.35;60.16;103175.86;126724;1099;101967;-76
2023/02/08 10:54:36;;;;;;;24.40;9.70;;;;;;;0.42;61.70;103164.63;126618;1097;103811;-79
2023/02/08 10:57:24;;;;;;;24.23;9.40;;;;;;;0.39;59.60;103169.42;126687;1099;101895;-76
2023/02/08 11:00:21;;;;;;;22.17;7.70;;;;;;;0.34;58.56;103157.59;126607;1099;101899;-77
2023/02/08 11:03:12;;;;;;;23.47;8.73;;;;;;;0.24;58.06;103157.25;126278;1098;102250;-76
2023/02/08 11:06:27;;;;;;;23.47;9.10;;;;;;;0.19;57.61;103161.87;126577;1098;103163;-79
2023/02/08 11:09:30;;;;;;;25.53;8.63;;;;;;;0.16;58.95;103148.59;126590;1099;104674;-76
2023/02/08 11:12:23;;;;;;;25.77;9.10;;;;;;;0.10;59.23;103146.17;126616;1099;102272;-78
2023/02/08 11:15:05;;;;;;;21.77;7.33;;;;;;;0.11;57.54;103144.51;126662;1098;103887;-79
2023/02/08 11:17:56;;;;;;;24.70;8.50;;;;;;;0.13;57.77;103145.64;126643;1099;102110;-76
2023/02/08 11:20:40;;;;;;;19.00;7.07;;;;;;;0.11;56.83;103139.34;126477;1099;101710;-76
2023/02/08 11:23:26;;;;;;;21.13;7.20;;;;;;;0.13;56.96;103138.80;126660;1099;103100;-76
2023/02/08 11:26:33;;;;;;;27.40;9.50;;;;;;;0.26;58.98;103132.52;126601;1098;101739;-76
2023/02/08 11:29:16;;;;;;;24.10;8.30;;;;;;;0.23;56.79;103148.56;126596;1099;102597;-77
2023/02/08 11:32:17;;;;;;;23.37;9.00;;;;;;;0.25;57.82;103129.03;126461;1099;102616;-77
2023/02/08 11:35:20;;;;;;;23.73;8.90;;;;;;;0.25;58.19;103116.11;126569;1099;102436;-75
2023/02/08 11:38:06;;;;;;;22.77;8.07;;;;;;;0.23;58.21;103098.58;126809;1098;102875;-77
2023/02/08 11:40:46;;;;;;;19.90;7.80;;;;;;;0.21;57.34;103106.15;126740;1099;101349;-80
2023/02/08 11:43:30;;;;;;;26.03;8.63;;;;;;;0.29;58.35;103107.97;126530;1099;102788;-78